sensor_id;sensor_type;location;lat;lon;timestamp;pressure;altitude;pressure_sealevel;temperature;humidity
35489;BME280;21602;55.670;37.578;2024-02-21T00:01:53;99992.91;;;-6.94;80.67
35489;BME280;21602;55.670;37.578;2024-02-21T00:04:19;99986.38;;;-7.00;80.48
35489;BME280;21602;55.670;37.578;2024-02-21T00:06:45;99983.16;;;-7.03;80.34
35489;BME280;21602;55.670;37.578;2024-02-21T00:09:11;99987.13;;;-7.10;80.61
35489;BME280;21602;55.670;37.578;2024-02-21T00:11:36;99977.69;;;-7.11;80.65
35489;BME280;21602;55.670;37.578;2024-02-21T00:14:02;99986.00;;;-7.06;80.77
35489;BME280;21602;55.670;37.578;2024-02-21T00:16:28;99983.91;;;-7.01;80.65
35489;BME280;21602;55.670;37.578;2024-02-21T00:18:53;99976.84;;;-6.99;80.44
35489;BME280;21602;55.670;37.578;2024-02-21T00:21:19;99976.22;;;-7.03;80.44
35489;BME280;21602;55.670;37.578;2024-02-21T00:23:45;99973.41;;;-7.00;80.70
35489;BME280;21602;55.670;37.578;2024-02-21T00:26:16;99971.44;;;-6.96;80.69
35489;BME280;21602;55.670;37.578;2024-02-21T00:28:41;99979.13;;;-6.94;80.58
35489;BME280;21602;55.670;37.578;2024-02-21T00:31:07;99977.34;;;-6.94;80.46
35489;BME280;21602;55.670;37.578;2024-02-21T00:33:33;99971.56;;;-6.98;80.56
35489;BME280;21602;55.670;37.578;2024-02-21T00:35:58;99966.25;;;-6.96;80.67
35489;BME280;21602;55.670;37.578;2024-02-21T00:38:24;99965.69;;;-6.88;80.56
35489;BME280;21602;55.670;37.578;2024-02-21T00:40:50;99965.38;;;-6.84;80.57
35489;BME280;21602;55.670;37.578;2024-02-21T00:43:16;99971.81;;;-6.77;80.40
35489;BME280;21602;55.670;37.578;2024-02-21T00:45:41;99960.03;;;-6.70;80.41
35489;BME280;21602;55.670;37.578;2024-02-21T00:48:07;99960.78;;;-6.67;80.01
35489;BME280;21602;55.670;37.578;2024-02-21T00:50:33;99958.81;;;-6.77;80.19
35489;BME280;21602;55.670;37.578;2024-02-21T00:52:59;99960.81;;;-6.80;80.17
35489;BME280;21602;55.670;37.578;2024-02-21T00:55:24;99950.41;;;-6.80;80.47
35489;BME280;21602;55.670;37.578;2024-02-21T00:57:50;99951.66;;;-6.73;80.52
35489;BME280;21602;55.670;37.578;2024-02-21T01:00:17;99949.25;;;-6.63;80.44
35489;BME280;21602;55.670;37.578;2024-02-21T01:02:42;99950.25;;;-6.53;80.43
35489;BME280;21602;55.670;37.578;2024-02-21T01:05:08;99945.22;;;-6.43;79.95
35489;BME280;21602;55.670;37.578;2024-02-21T01:07:34;99939.06;;;-6.42;79.84
35489;BME280;21602;55.670;37.578;2024-02-21T01:10:00;99941.53;;;-6.41;79.73
35489;BME280;21602;55.670;37.578;2024-02-21T01:12:26;99926.56;;;-6.37;79.53
35489;BME280;21602;55.670;37.578;2024-02-21T01:14:52;99929.91;;;-6.35;79.74
35489;BME280;21602;55.670;37.578;2024-02-21T01:17:17;99920.34;;;-6.35;79.64
35489;BME280;21602;55.670;37.578;2024-02-21T01:19:45;99920.09;;;-6.32;79.56
35489;BME280;21602;55.670;37.578;2024-02-21T01:22:11;99924.63;;;-6.23;79.71
35489;BME280;21602;55.670;37.578;2024-02-21T01:24:37;99918.72;;;-6.25;79.49
35489;BME280;21602;55.670;37.578;2024-02-21T01:27:03;99919.44;;;-6.23;79.81
35489;BME280;21602;55.670;37.578;2024-02-21T01:29:29;99928.38;;;-6.27;79.59
35489;BME280;21602;55.670;37.578;2024-02-21T01:31:55;99920.72;;;-6.28;79.70
35489;BME280;21602;55.670;37.578;2024-02-21T01:34:21;99920.94;;;-6.31;79.65
35489;BME280;21602;55.670;37.578;2024-02-21T01:36:47;99916.34;;;-6.28;79.65
35489;BME280;21602;55.670;37.578;2024-02-21T01:39:12;99918.06;;;-6.39;79.81
35489;BME280;21602;55.670;37.578;2024-02-21T01:41:38;99912.63;;;-6.36;79.84
35489;BME280;21602;55.670;37.578;2024-02-21T01:44:04;99908.88;;;-6.32;79.94
35489;BME280;21602;55.670;37.578;2024-02-21T01:46:29;99903.69;;;-6.32;80.08
35489;BME280;21602;55.670;37.578;2024-02-21T01:48:57;99909.50;;;-6.29;79.94
35489;BME280;21602;55.670;37.578;2024-02-21T01:51:24;99905.84;;;-6.26;79.80
35489;BME280;21602;55.670;37.578;2024-02-21T01:53:51;99902.41;;;-6.27;79.93
35489;BME280;21602;55.670;37.578;2024-02-21T01:56:17;99903.84;;;-6.23;80.11
35489;BME280;21602;55.670;37.578;2024-02-21T01:58:46;99894.66;;;-6.15;79.93
35489;BME280;21602;55.670;37.578;2024-02-21T02:01:13;99897.00;;;-6.12;79.73
35489;BME280;21602;55.670;37.578;2024-02-21T02:03:39;99894.41;;;-6.12;79.71
35489;BME280;21602;55.670;37.578;2024-02-21T02:06:05;99884.00;;;-6.12;79.65
35489;BME280;21602;55.670;37.578;2024-02-21T02:08:34;99889.72;;;-6.07;79.66
35489;BME280;21602;55.670;37.578;2024-02-21T02:11:01;99890.22;;;-6.02;79.94
35489;BME280;21602;55.670;37.578;2024-02-21T02:13:27;99889.13;;;-6.00;79.66
35489;BME280;21602;55.670;37.578;2024-02-21T02:15:53;99883.81;;;-6.09;79.76
35489;BME280;21602;55.670;37.578;2024-02-21T02:18:19;99883.47;;;-6.05;79.53
35489;BME280;21602;55.670;37.578;2024-02-21T02:20:46;99889.38;;;-6.03;79.84
35489;BME280;21602;55.670;37.578;2024-02-21T02:23:31;99889.00;;;-5.98;79.79
35489;BME280;21602;55.670;37.578;2024-02-21T02:25:57;99884.66;;;-5.98;79.66
35489;BME280;21602;55.670;37.578;2024-02-21T02:28:24;99888.66;;;-5.94;79.78
35489;BME280;21602;55.670;37.578;2024-02-21T02:30:50;99889.03;;;-5.87;79.74
35489;BME280;21602;55.670;37.578;2024-02-21T02:33:16;99898.47;;;-5.86;79.56
35489;BME280;21602;55.670;37.578;2024-02-21T02:35:45;99895.88;;;-5.86;79.61
35489;BME280;21602;55.670;37.578;2024-02-21T02:38:11;99890.91;;;-5.89;79.94
35489;BME280;21602;55.670;37.578;2024-02-21T02:40:39;99889.97;;;-5.88;79.87
35489;BME280;21602;55.670;37.578;2024-02-21T02:43:06;99902.03;;;-5.87;79.92
35489;BME280;21602;55.670;37.578;2024-02-21T02:45:32;99894.84;;;-5.83;79.94
35489;BME280;21602;55.670;37.578;2024-02-21T02:48:23;99893.16;;;-5.84;80.01
35489;BME280;21602;55.670;37.578;2024-02-21T02:50:49;99890.56;;;-5.84;80.11
35489;BME280;21602;55.670;37.578;2024-02-21T02:53:15;99893.53;;;-5.78;80.10
35489;BME280;21602;55.670;37.578;2024-02-21T02:55:41;99889.28;;;-5.79;80.06
35489;BME280;21602;55.670;37.578;2024-02-21T02:58:07;99884.31;;;-5.82;80.07
35489;BME280;21602;55.670;37.578;2024-02-21T03:00:32;99890.47;;;-5.83;80.18
35489;BME280;21602;55.670;37.578;2024-02-21T03:03:01;99894.72;;;-5.82;80.40
35489;BME280;21602;55.670;37.578;2024-02-21T03:05:30;99892.09;;;-5.82;80.46
35489;BME280;21602;55.670;37.578;2024-02-21T03:07:56;99891.75;;;-5.77;80.73
35489;BME280;21602;55.670;37.578;2024-02-21T03:10:22;99882.66;;;-5.72;80.73
35489;BME280;21602;55.670;37.578;2024-02-21T03:12:48;99884.69;;;-5.64;80.37
35489;BME280;21602;55.670;37.578;2024-02-21T03:15:14;99888.47;;;-5.57;80.41
35489;BME280;21602;55.670;37.578;2024-02-21T03:17:40;99886.13;;;-5.49;80.41
35489;BME280;21602;55.670;37.578;2024-02-21T03:20:07;99882.53;;;-5.36;80.45
35489;BME280;21602;55.670;37.578;2024-02-21T03:22:36;99877.59;;;-5.28;79.92
35489;BME280;21602;55.670;37.578;2024-02-21T03:25:02;99887.03;;;-5.27;79.73
35489;BME280;21602;55.670;37.578;2024-02-21T03:27:29;99872.03;;;-5.24;79.69
35489;BME280;21602;55.670;37.578;2024-02-21T03:29:55;99874.16;;;-5.29;79.72
35489;BME280;21602;55.670;37.578;2024-02-21T03:32:21;99874.88;;;-5.27;79.79
35489;BME280;21602;55.670;37.578;2024-02-21T03:34:47;99872.97;;;-5.25;79.66
35489;BME280;21602;55.670;37.578;2024-02-21T03:37:12;99871.44;;;-5.27;79.47
35489;BME280;21602;55.670;37.578;2024-02-21T03:39:39;99878.41;;;-5.28;79.58
35489;BME280;21602;55.670;37.578;2024-02-21T03:42:06;99874.16;;;-5.29;79.99
35489;BME280;21602;55.670;37.578;2024-02-21T03:44:31;99868.13;;;-5.29;80.00
35489;BME280;21602;55.670;37.578;2024-02-21T03:46:58;99871.19;;;-5.24;79.97
35489;BME280;21602;55.670;37.578;2024-02-21T03:49:24;99873.44;;;-5.20;79.69
35489;BME280;21602;55.670;37.578;2024-02-21T03:51:50;99875.00;;;-5.17;79.64
35489;BME280;21602;55.670;37.578;2024-02-21T03:54:16;99877.59;;;-5.17;79.44
35489;BME280;21602;55.670;37.578;2024-02-21T03:56:42;99875.81;;;-5.17;79.78
35489;BME280;21602;55.670;37.578;2024-02-21T03:59:08;99877.34;;;-5.14;79.75
35489;BME280;21602;55.670;37.578;2024-02-21T04:01:34;99874.63;;;-5.12;79.55
35489;BME280;21602;55.670;37.578;2024-02-21T04:04:01;99878.06;;;-5.23;79.55
35489;BME280;21602;55.670;37.578;2024-02-21T04:06:27;99885.38;;;-5.28;79.68
35489;BME280;21602;55.670;37.578;2024-02-21T04:08:53;99876.28;;;-5.23;79.89
35489;BME280;21602;55.670;37.578;2024-02-21T04:11:18;99876.53;;;-5.26;80.06
35489;BME280;21602;55.670;37.578;2024-02-21T04:13:47;99881.00;;;-5.28;80.03
35489;BME280;21602;55.670;37.578;2024-02-21T04:16:16;99870.97;;;-5.21;79.98
35489;BME280;21602;55.670;37.578;2024-02-21T04:18:42;99878.41;;;-5.28;80.19
35489;BME280;21602;55.670;37.578;2024-02-21T04:21:09;99878.66;;;-5.31;80.19
35489;BME280;21602;55.670;37.578;2024-02-21T04:23:35;99874.03;;;-5.27;80.45
35489;BME280;21602;55.670;37.578;2024-02-21T04:26:01;99884.53;;;-5.18;80.45
35489;BME280;21602;55.670;37.578;2024-02-21T04:28:26;99886.78;;;-5.13;80.33
35489;BME280;21602;55.670;37.578;2024-02-21T04:30:52;99878.97;;;-5.13;79.97
35489;BME280;21602;55.670;37.578;2024-02-21T04:33:18;99882.91;;;-5.19;80.32
35489;BME280;21602;55.670;37.578;2024-02-21T04:35:44;99883.16;;;-5.22;80.25
35489;BME280;21602;55.670;37.578;2024-02-21T04:38:10;99886.69;;;-5.23;80.45
35489;BME280;21602;55.670;37.578;2024-02-21T04:40:36;99887.06;;;-5.16;80.73
35489;BME280;21602;55.670;37.578;2024-02-21T04:43:03;99888.34;;;-5.10;80.42
35489;BME280;21602;55.670;37.578;2024-02-21T04:45:28;99889.50;;;-5.03;80.43
35489;BME280;21602;55.670;37.578;2024-02-21T04:47:54;99887.94;;;-4.95;80.29
35489;BME280;21602;55.670;37.578;2024-02-21T04:50:20;99886.06;;;-4.93;80.19
35489;BME280;21602;55.670;37.578;2024-02-21T04:52:46;99886.31;;;-4.96;79.97
35489;BME280;21602;55.670;37.578;2024-02-21T04:55:12;99878.34;;;-4.94;80.18
35489;BME280;21602;55.670;37.578;2024-02-21T04:57:38;99873.66;;;-5.00;80.18
35489;BME280;21602;55.670;37.578;2024-02-21T05:00:04;99884.53;;;-4.95;80.31
35489;BME280;21602;55.670;37.578;2024-02-21T05:02:30;99878.25;;;-4.93;80.16
35489;BME280;21602;55.670;37.578;2024-02-21T05:04:56;99880.38;;;-4.86;80.23
35489;BME280;21602;55.670;37.578;2024-02-21T05:07:22;99882.75;;;-4.83;80.13
35489;BME280;21602;55.670;37.578;2024-02-21T05:09:48;99880.25;;;-4.85;79.91
35489;BME280;21602;55.670;37.578;2024-02-21T05:12:14;99877.25;;;-4.80;79.72
35489;BME280;21602;55.670;37.578;2024-02-21T05:14:39;99879.31;;;-4.84;79.70
35489;BME280;21602;55.670;37.578;2024-02-21T05:17:05;99882.38;;;-4.79;79.98
35489;BME280;21602;55.670;37.578;2024-02-21T05:19:31;99875.75;;;-4.83;79.87
35489;BME280;21602;55.670;37.578;2024-02-21T05:21:58;99883.09;;;-4.88;79.80
35489;BME280;21602;55.670;37.578;2024-02-21T05:24:24;99886.75;;;-4.91;80.09
35489;BME280;21602;55.670;37.578;2024-02-21T05:26:51;99883.56;;;-4.83;80.18
35489;BME280;21602;55.670;37.578;2024-02-21T05:29:19;99885.91;;;-4.80;80.00
35489;BME280;21602;55.670;37.578;2024-02-21T05:34:17;99881.41;;;-4.78;79.93
35489;BME280;21602;55.670;37.578;2024-02-21T05:36:43;99876.91;;;-4.76;79.91
35489;BME280;21602;55.670;37.578;2024-02-21T05:39:09;99879.97;;;-4.71;79.90
35489;BME280;21602;55.670;37.578;2024-02-21T05:41:35;99878.09;;;-4.69;79.65
35489;BME280;21602;55.670;37.578;2024-02-21T05:44:01;99881.38;;;-4.67;79.61
35489;BME280;21602;55.670;37.578;2024-02-21T05:46:27;99877.50;;;-4.72;79.68
35489;BME280;21602;55.670;37.578;2024-02-21T05:48:53;99876.16;;;-4.67;79.77
35489;BME280;21602;55.670;37.578;2024-02-21T05:51:19;99883.00;;;-4.54;79.93
35489;BME280;21602;55.670;37.578;2024-02-21T05:53:45;99882.25;;;-4.45;79.80
35489;BME280;21602;55.670;37.578;2024-02-21T05:56:11;99874.63;;;-4.37;79.34
35489;BME280;21602;55.670;37.578;2024-02-21T05:58:37;99880.50;;;-4.24;79.12
35489;BME280;21602;55.670;37.578;2024-02-21T06:01:03;99882.63;;;-4.18;78.82
35489;BME280;21602;55.670;37.578;2024-02-21T06:03:30;99873.88;;;-4.28;78.74
35489;BME280;21602;55.670;37.578;2024-02-21T06:05:56;99884.38;;;-4.39;78.79
35489;BME280;21602;55.670;37.578;2024-02-21T06:08:22;99887.22;;;-4.42;79.00
35489;BME280;21602;55.670;37.578;2024-02-21T06:10:47;99885.78;;;-4.35;79.13
35489;BME280;21602;55.670;37.578;2024-02-21T06:13:14;99883.38;;;-4.27;78.98
35489;BME280;21602;55.670;37.578;2024-02-21T06:15:40;99875.50;;;-4.16;78.72
35489;BME280;21602;55.670;37.578;2024-02-21T06:18:06;99885.91;;;-4.16;78.68
35489;BME280;21602;55.670;37.578;2024-02-21T06:20:32;99873.34;;;-4.10;78.62
35489;BME280;21602;55.670;37.578;2024-02-21T06:23:01;99874.00;;;-4.08;78.22
35489;BME280;21602;55.670;37.578;2024-02-21T06:25:27;99879.44;;;-4.00;78.44
35489;BME280;21602;55.670;37.578;2024-02-21T06:27:53;99877.53;;;-3.98;78.24
35489;BME280;21602;55.670;37.578;2024-02-21T06:30:18;99880.00;;;-3.97;78.38
35489;BME280;21602;55.670;37.578;2024-02-21T06:32:44;99875.38;;;-3.93;77.89
35489;BME280;21602;55.670;37.578;2024-02-21T06:35:10;99876.63;;;-3.88;77.99
35489;BME280;21602;55.670;37.578;2024-02-21T06:37:39;99879.13;;;-3.86;77.55
35489;BME280;21602;55.670;37.578;2024-02-21T06:40:05;99882.88;;;-3.79;77.62
35489;BME280;21602;55.670;37.578;2024-02-21T06:42:31;99890.88;;;-3.71;77.59
35489;BME280;21602;55.670;37.578;2024-02-21T06:44:57;99890.31;;;-3.74;77.29
35489;BME280;21602;55.670;37.578;2024-02-21T06:47:23;99888.53;;;-3.74;77.24
35489;BME280;21602;55.670;37.578;2024-02-21T06:49:49;99883.75;;;-3.69;77.02
35489;BME280;21602;55.670;37.578;2024-02-21T06:52:18;99886.56;;;-3.61;77.08
35489;BME280;21602;55.670;37.578;2024-02-21T06:54:48;99884.06;;;-3.62;76.94
35489;BME280;21602;55.670;37.578;2024-02-21T06:57:14;99875.00;;;-3.58;77.01
35489;BME280;21602;55.670;37.578;2024-02-21T06:59:41;99874.88;;;-3.56;76.59
35489;BME280;21602;55.670;37.578;2024-02-21T07:02:07;99886.06;;;-3.45;76.88
35489;BME280;21602;55.670;37.578;2024-02-21T07:04:33;99875.41;;;-3.32;76.57
35489;BME280;21602;55.670;37.578;2024-02-21T07:07:00;99880.91;;;-3.25;76.68
35489;BME280;21602;55.670;37.578;2024-02-21T07:09:25;99874.91;;;-3.16;76.53
35489;BME280;21602;55.670;37.578;2024-02-21T07:11:51;99872.97;;;-3.14;76.00
35489;BME280;21602;55.670;37.578;2024-02-21T07:14:18;99869.03;;;-3.08;76.23
35489;BME280;21602;55.670;37.578;2024-02-21T07:16:44;99868.59;;;-3.04;75.80
35489;BME280;21602;55.670;37.578;2024-02-21T07:19:10;99860.94;;;-2.96;75.52
35489;BME280;21602;55.670;37.578;2024-02-21T07:21:35;99851.31;;;-2.86;75.30
35489;BME280;21602;55.670;37.578;2024-02-21T07:24:04;99850.50;;;-2.76;75.04
35489;BME280;21602;55.670;37.578;2024-02-21T07:26:31;99850.50;;;-2.76;74.21
35489;BME280;21602;55.670;37.578;2024-02-21T07:28:57;99857.81;;;-2.80;74.54
35489;BME280;21602;55.670;37.578;2024-02-21T07:31:23;99856.03;;;-2.79;74.28
35489;BME280;21602;55.670;37.578;2024-02-21T07:33:48;99852.44;;;-2.78;74.48
35489;BME280;21602;55.670;37.578;2024-02-21T07:36:15;99871.72;;;-2.79;74.56
35489;BME280;21602;55.670;37.578;2024-02-21T07:38:45;99857.91;;;-2.91;74.20
35489;BME280;21602;55.670;37.578;2024-02-21T07:41:10;99859.84;;;-2.93;74.44
35489;BME280;21602;55.670;37.578;2024-02-21T07:43:38;99860.13;;;-2.96;74.51
35489;BME280;21602;55.670;37.578;2024-02-21T07:46:07;99865.09;;;-2.84;74.62
35489;BME280;21602;55.670;37.578;2024-02-21T07:48:33;99860.84;;;-2.75;74.11
35489;BME280;21602;55.670;37.578;2024-02-21T07:50:59;99864.56;;;-2.68;74.06
35489;BME280;21602;55.670;37.578;2024-02-21T07:53:24;99865.69;;;-2.61;74.01
35489;BME280;21602;55.670;37.578;2024-02-21T07:55:56;99858.66;;;-2.50;73.78
35489;BME280;21602;55.670;37.578;2024-02-21T07:58:21;99861.00;;;-2.47;73.40
35489;BME280;21602;55.670;37.578;2024-02-21T08:00:47;99854.25;;;-2.50;73.65
35489;BME280;21602;55.670;37.578;2024-02-21T08:03:13;99856.47;;;-2.65;73.46
35489;BME280;21602;55.670;37.578;2024-02-21T08:05:41;99855.63;;;-2.75;73.67
35489;BME280;21602;55.670;37.578;2024-02-21T08:08:06;99846.81;;;-2.74;73.71
35489;BME280;21602;55.670;37.578;2024-02-21T08:10:34;99848.88;;;-2.58;73.70
35489;BME280;21602;55.670;37.578;2024-02-21T08:12:59;99846.69;;;-2.43;73.74
35489;BME280;21602;55.670;37.578;2024-02-21T08:15:25;99842.41;;;-2.35;73.32
35489;BME280;21602;55.670;37.578;2024-02-21T08:17:55;99836.91;;;-2.32;73.26
35489;BME280;21602;55.670;37.578;2024-02-21T08:20:27;99832.09;;;-2.26;73.37
35489;BME280;21602;55.670;37.578;2024-02-21T08:22:53;99836.50;;;-2.27;72.88
35489;BME280;21602;55.670;37.578;2024-02-21T08:25:18;99842.97;;;-2.21;73.13
35489;BME280;21602;55.670;37.578;2024-02-21T08:27:44;99832.38;;;-2.29;72.87
35489;BME280;21602;55.670;37.578;2024-02-21T08:30:11;99842.56;;;-2.26;73.22
35489;BME280;21602;55.670;37.578;2024-02-21T08:32:37;99836.50;;;-2.27;73.04
35489;BME280;21602;55.670;37.578;2024-02-21T08:35:03;99850.00;;;-2.32;73.38
35489;BME280;21602;55.670;37.578;2024-02-21T08:37:30;99836.09;;;-2.22;73.48
35489;BME280;21602;55.670;37.578;2024-02-21T08:39:56;99836.34;;;-2.16;74.10
35489;BME280;21602;55.670;37.578;2024-02-21T08:42:22;99844.47;;;-2.19;73.02
35489;BME280;21602;55.670;37.578;2024-02-21T08:44:48;99847.50;;;-2.33;73.12
35489;BME280;21602;55.670;37.578;2024-02-21T08:47:14;99845.59;;;-2.31;73.04
35489;BME280;21602;55.670;37.578;2024-02-21T08:49:40;99847.06;;;-2.19;73.30
35489;BME280;21602;55.670;37.578;2024-02-21T08:52:05;99836.47;;;-2.08;72.59
35489;BME280;21602;55.670;37.578;2024-02-21T08:54:32;99845.53;;;-1.92;73.15
35489;BME280;21602;55.670;37.578;2024-02-21T08:57:03;99840.84;;;-1.89;72.10
35489;BME280;21602;55.670;37.578;2024-02-21T08:59:29;99837.84;;;-1.94;72.23
35489;BME280;21602;55.670;37.578;2024-02-21T09:01:54;99842.63;;;-1.89;71.95
35489;BME280;21602;55.670;37.578;2024-02-21T09:04:20;99845.19;;;-1.70;72.04
35489;BME280;21602;55.670;37.578;2024-02-21T09:06:46;99839.19;;;-1.52;71.25
35489;BME280;21602;55.670;37.578;2024-02-21T09:09:12;99843.25;;;-1.31;71.04
35489;BME280;21602;55.670;37.578;2024-02-21T09:11:38;99838.25;;;-1.24;70.33
35489;BME280;21602;55.670;37.578;2024-02-21T09:14:08;99835.72;;;-1.16;70.56
35489;BME280;21602;55.670;37.578;2024-02-21T09:16:34;99834.53;;;-1.21;69.58
35489;BME280;21602;55.670;37.578;2024-02-21T09:18:59;99837.03;;;-1.30;69.71
35489;BME280;21602;55.670;37.578;2024-02-21T09:21:26;99831.84;;;-1.39;70.02
35489;BME280;21602;55.670;37.578;2024-02-21T09:23:51;99817.00;;;-1.48;70.28
35489;BME280;21602;55.670;37.578;2024-02-21T09:26:17;99824.06;;;-1.59;70.07
35489;BME280;21602;55.670;37.578;2024-02-21T09:28:43;99821.19;;;-1.56;70.25
35489;BME280;21602;55.670;37.578;2024-02-21T09:31:13;99821.31;;;-1.57;69.94
35489;BME280;21602;55.670;37.578;2024-02-21T09:33:39;99824.50;;;-1.63;69.89
35489;BME280;21602;55.670;37.578;2024-02-21T09:36:06;99820.09;;;-1.63;70.06
35489;BME280;21602;55.670;37.578;2024-02-21T09:38:32;99823.38;;;-1.51;69.59
35489;BME280;21602;55.670;37.578;2024-02-21T09:41:11;99804.88;;;-1.49;70.11
35489;BME280;21602;55.670;37.578;2024-02-21T09:43:40;99808.28;;;-1.39;69.67
35489;BME280;21602;55.670;37.578;2024-02-21T09:46:08;99808.47;;;-1.23;69.82
35489;BME280;21602;55.670;37.578;2024-02-21T09:51:30;99817.16;;;-0.95;68.83
35489;BME280;21602;55.670;37.578;2024-02-21T09:53:58;99807.31;;;-0.93;69.11
35489;BME280;21602;55.670;37.578;2024-02-21T09:56:25;99808.53;;;-0.87;68.22
35489;BME280;21602;55.670;37.578;2024-02-21T09:58:50;99805.53;;;-0.74;68.67
35489;BME280;21602;55.670;37.578;2024-02-21T10:01:17;99804.41;;;-0.72;68.04
35489;BME280;21602;55.670;37.578;2024-02-21T10:03:42;99809.97;;;-0.75;67.52
35489;BME280;21602;55.670;37.578;2024-02-21T10:06:11;99806.28;;;-0.64;67.66
35489;BME280;21602;55.670;37.578;2024-02-21T10:08:37;99803.94;;;-0.49;67.35
35489;BME280;21602;55.670;37.578;2024-02-21T10:11:03;99796.38;;;-0.35;67.10
35489;BME280;21602;55.670;37.578;2024-02-21T10:13:31;99802.22;;;-0.41;66.25
35489;BME280;21602;55.670;37.578;2024-02-21T10:16:15;99796.63;;;-0.46;66.90
35489;BME280;21602;55.670;37.578;2024-02-21T10:18:41;99804.63;;;-0.47;66.76
35489;BME280;21602;55.670;37.578;2024-02-21T10:21:08;99796.81;;;-0.39;66.81
35489;BME280;21602;55.670;37.578;2024-02-21T10:23:44;99795.25;;;-0.32;66.42
35489;BME280;21602;55.670;37.578;2024-02-21T10:26:14;99801.78;;;-0.36;66.42
35489;BME280;21602;55.670;37.578;2024-02-21T10:28:40;99799.69;;;-0.33;66.62
35489;BME280;21602;55.670;37.578;2024-02-21T10:31:11;99795.09;;;-0.31;66.46
35489;BME280;21602;55.670;37.578;2024-02-21T10:33:53;99799.34;;;-0.30;65.73
35489;BME280;21602;55.670;37.578;2024-02-21T10:36:19;99795.91;;;-0.48;65.99
35489;BME280;21602;55.670;37.578;2024-02-21T10:38:44;99805.69;;;-0.58;67.09
35489;BME280;21602;55.670;37.578;2024-02-21T10:41:14;99805.47;;;-0.65;66.91
35489;BME280;21602;55.670;37.578;2024-02-21T10:43:40;99797.50;;;-0.73;66.68
35489;BME280;21602;55.670;37.578;2024-02-21T10:46:07;99797.81;;;-0.76;67.22
35489;BME280;21602;55.670;37.578;2024-02-21T10:48:44;99803.44;;;-0.71;67.32
35489;BME280;21602;55.670;37.578;2024-02-21T10:56:26;99788.91;;;-0.83;67.47
35489;BME280;21602;55.670;37.578;2024-02-21T10:58:52;99796.63;;;-0.99;67.22
35489;BME280;21602;55.670;37.578;2024-02-21T11:01:19;99790.47;;;-1.08;67.16
35489;BME280;21602;55.670;37.578;2024-02-21T11:03:46;99785.94;;;-1.16;67.38
35489;BME280;21602;55.670;37.578;2024-02-21T11:06:13;99787.09;;;-1.18;68.12
35489;BME280;21602;55.670;37.578;2024-02-21T11:08:41;99788.28;;;-1.13;68.30
35489;BME280;21602;55.670;37.578;2024-02-21T11:11:07;99784.31;;;-1.17;67.68
35489;BME280;21602;55.670;37.578;2024-02-21T11:13:37;99780.34;;;-1.21;67.97
35489;BME280;21602;55.670;37.578;2024-02-21T11:16:07;99781.84;;;-1.18;68.16
35489;BME280;21602;55.670;37.578;2024-02-21T11:18:35;99774.13;;;-1.20;68.04
35489;BME280;21602;55.670;37.578;2024-02-21T11:21:01;99774.44;;;-1.23;68.22
35489;BME280;21602;55.670;37.578;2024-02-21T11:23:27;99775.25;;;-1.22;68.50
35489;BME280;21602;55.670;37.578;2024-02-21T11:26:04;99775.97;;;-1.30;68.34
35489;BME280;21602;55.670;37.578;2024-02-21T11:28:30;99769.44;;;-1.44;68.21
35489;BME280;21602;55.670;37.578;2024-02-21T11:31:06;99770.84;;;-1.49;68.29
35489;BME280;21602;55.670;37.578;2024-02-21T11:33:33;99761.78;;;-1.55;68.26
35489;BME280;21602;55.670;37.578;2024-02-21T11:35:59;99763.31;;;-1.62;68.63
35489;BME280;21602;55.670;37.578;2024-02-21T11:38:25;99761.72;;;-1.73;68.71
35489;BME280;21602;55.670;37.578;2024-02-21T11:40:50;99766.94;;;-1.73;68.81
35489;BME280;21602;55.670;37.578;2024-02-21T11:43:16;99765.69;;;-1.69;69.57
35489;BME280;21602;55.670;37.578;2024-02-21T11:45:42;99753.00;;;-1.64;69.28
35489;BME280;21602;55.670;37.578;2024-02-21T11:48:08;99761.69;;;-1.63;69.63
35489;BME280;21602;55.670;37.578;2024-02-21T11:50:35;99757.53;;;-1.56;69.39
35489;BME280;21602;55.670;37.578;2024-02-21T11:53:02;99761.78;;;-1.55;69.38
35489;BME280;21602;55.670;37.578;2024-02-21T11:55:28;99754.63;;;-1.63;69.20
35489;BME280;21602;55.670;37.578;2024-02-21T11:57:54;99752.59;;;-1.69;69.64
35489;BME280;21602;55.670;37.578;2024-02-21T12:00:20;99761.31;;;-1.78;69.39
35489;BME280;21602;55.670;37.578;2024-02-21T12:02:47;99754.88;;;-1.84;69.87
35489;BME280;21602;55.670;37.578;2024-02-21T12:05:14;99757.97;;;-1.98;70.40
35489;BME280;21602;55.670;37.578;2024-02-21T12:07:40;99754.16;;;-2.13;70.76
35489;BME280;21602;55.670;37.578;2024-02-21T12:10:13;99754.56;;;-2.08;71.63
35489;BME280;21602;55.670;37.578;2024-02-21T12:12:39;99743.38;;;-2.00;71.61
35489;BME280;21602;55.670;37.578;2024-02-21T12:15:07;99747.88;;;-1.93;71.85
35489;BME280;21602;55.670;37.578;2024-02-21T12:17:34;99744.72;;;-1.96;71.51
35489;BME280;21602;55.670;37.578;2024-02-21T12:20:01;99738.44;;;-2.03;71.39
35489;BME280;21602;55.670;37.578;2024-02-21T12:22:29;99737.63;;;-2.04;71.93
35489;BME280;21602;55.670;37.578;2024-02-21T12:24:58;99733.06;;;-2.02;71.86
35489;BME280;21602;55.670;37.578;2024-02-21T12:27:24;99741.06;;;-2.03;71.30
35489;BME280;21602;55.670;37.578;2024-02-21T12:29:52;99735.44;;;-2.09;71.89
35489;BME280;21602;55.670;37.578;2024-02-21T12:32:17;99733.19;;;-2.03;72.61
35489;BME280;21602;55.670;37.578;2024-02-21T12:34:43;99732.91;;;-2.00;71.86
35489;BME280;21602;55.670;37.578;2024-02-21T12:37:10;99727.66;;;-2.00;72.17
35489;BME280;21602;55.670;37.578;2024-02-21T12:39:38;99729.63;;;-2.02;71.74
35489;BME280;21602;55.670;37.578;2024-02-21T12:42:04;99730.44;;;-2.02;71.65
35489;BME280;21602;55.670;37.578;2024-02-21T12:44:30;99724.69;;;-2.15;72.24
35489;BME280;21602;55.670;37.578;2024-02-21T12:46:56;99720.28;;;-2.15;72.70
35489;BME280;21602;55.670;37.578;2024-02-21T12:49:21;99722.63;;;-2.12;72.91
35489;BME280;21602;55.670;37.578;2024-02-21T12:51:47;99723.28;;;-2.10;72.34
35489;BME280;21602;55.670;37.578;2024-02-21T12:54:13;99716.13;;;-2.08;72.78
35489;BME280;21602;55.670;37.578;2024-02-21T12:56:39;99720.28;;;-2.15;72.83
35489;BME280;21602;55.670;37.578;2024-02-21T12:59:06;99713.00;;;-2.21;72.48